sensor_id;sensor_type;location;lat;lon;timestamp;P1;durP1;ratioP1;P2;durP2;ratioP2
9138;SDS011;4604;48.616;9.548;2022-12-13T00:01:34;19.10;;;11.13;;
9138;SDS011;4604;48.616;9.548;2022-12-13T00:04:02;20.80;;;10.23;;
9138;SDS011;4604;48.616;9.548;2022-12-13T00:06:30;21.67;;;11.07;;
9138;SDS011;4604;48.616;9.548;2022-12-13T00:08:58;17.43;;;10.13;;
9138;SDS011;4604;48.616;9.548;2022-12-13T00:11:26;22.03;;;10.80;;
9138;SDS011;4604;48.616;9.548;2022-12-13T00:13:54;20.90;;;9.93;;
9138;SDS011;4604;48.616;9.548;2022-12-13T00:16:22;19.90;;;10.53;;
9138;SDS011;4604;48.616;9.548;2022-12-13T00:18:50;15.93;;;8.70;;
9138;SDS011;4604;48.616;9.548;2022-12-13T00:21:20;13.57;;;7.63;;
9138;SDS011;4604;48.616;9.548;2022-12-13T00:23:48;17.73;;;8.37;;
9138;SDS011;4604;48.616;9.548;2022-12-13T00:26:16;19.37;;;9.03;;
9138;SDS011;4604;48.616;9.548;2022-12-13T00:28:44;17.70;;;9.10;;
9138;SDS011;4604;48.616;9.548;2022-12-13T00:31:14;16.27;;;8.73;;
9138;SDS011;4604;48.616;9.548;2022-12-13T00:33:42;17.57;;;8.37;;
9138;SDS011;4604;48.616;9.548;2022-12-13T00:36:09;15.13;;;8.27;;
9138;SDS011;4604;48.616;9.548;2022-12-13T00:38:36;16.40;;;7.70;;
9138;SDS011;4604;48.616;9.548;2022-12-13T00:41:08;12.47;;;6.77;;
9138;SDS011;4604;48.616;9.548;2022-12-13T00:43:36;15.20;;;6.90;;
9138;SDS011;4604;48.616;9.548;2022-12-13T00:46:03;17.10;;;7.03;;
9138;SDS011;4604;48.616;9.548;2022-12-13T00:48:31;13.43;;;6.47;;
9138;SDS011;4604;48.616;9.548;2022-12-13T00:50:58;11.80;;;6.10;;
9138;SDS011;4604;48.616;9.548;2022-12-13T00:53:24;9.77;;;6.30;;
9138;SDS011;4604;48.616;9.548;2022-12-13T00:55:51;10.93;;;6.23;;
9138;SDS011;4604;48.616;9.548;2022-12-13T00:58:18;14.20;;;6.93;;
9138;SDS011;4604;48.616;9.548;2022-12-13T01:00:45;13.03;;;6.73;;
9138;SDS011;4604;48.616;9.548;2022-12-13T01:03:12;15.83;;;7.73;;
9138;SDS011;4604;48.616;9.548;2022-12-13T01:05:46;17.07;;;7.27;;
9138;SDS011;4604;48.616;9.548;2022-12-13T01:08:13;14.50;;;6.43;;
9138;SDS011;4604;48.616;9.548;2022-12-13T01:10:41;13.53;;;7.30;;
9138;SDS011;4604;48.616;9.548;2022-12-13T01:13:08;13.97;;;7.27;;
9138;SDS011;4604;48.616;9.548;2022-12-13T01:15:38;17.67;;;7.97;;
9138;SDS011;4604;48.616;9.548;2022-12-13T01:18:06;15.57;;;7.53;;
9138;SDS011;4604;48.616;9.548;2022-12-13T01:20:33;17.43;;;8.40;;
9138;SDS011;4604;48.616;9.548;2022-12-13T01:23:01;15.10;;;7.03;;
9138;SDS011;4604;48.616;9.548;2022-12-13T01:25:27;12.17;;;6.57;;
9138;SDS011;4604;48.616;9.548;2022-12-13T01:27:54;12.60;;;7.30;;
9138;SDS011;4604;48.616;9.548;2022-12-13T01:30:21;16.57;;;7.83;;
9138;SDS011;4604;48.616;9.548;2022-12-13T01:32:48;15.03;;;8.10;;
9138;SDS011;4604;48.616;9.548;2022-12-13T01:35:14;16.03;;;8.03;;
9138;SDS011;4604;48.616;9.548;2022-12-13T01:37:41;17.77;;;8.67;;
9138;SDS011;4604;48.616;9.548;2022-12-13T01:40:10;12.30;;;7.27;;
9138;SDS011;4604;48.616;9.548;2022-12-13T01:42:38;12.10;;;7.13;;
9138;SDS011;4604;48.616;9.548;2022-12-13T01:45:07;12.63;;;7.43;;
9138;SDS011;4604;48.616;9.548;2022-12-13T01:47:50;13.17;;;7.40;;
9138;SDS011;4604;48.616;9.548;2022-12-13T01:50:25;14.10;;;6.83;;
9138;SDS011;4604;48.616;9.548;2022-12-13T01:52:54;13.50;;;6.87;;
9138;SDS011;4604;48.616;9.548;2022-12-13T01:55:23;15.47;;;6.60;;
9138;SDS011;4604;48.616;9.548;2022-12-13T01:57:53;11.10;;;6.53;;
9138;SDS011;4604;48.616;9.548;2022-12-13T02:00:23;11.83;;;6.40;;
9138;SDS011;4604;48.616;9.548;2022-12-13T02:02:51;15.03;;;6.47;;
9138;SDS011;4604;48.616;9.548;2022-12-13T02:05:20;10.77;;;6.20;;
9138;SDS011;4604;48.616;9.548;2022-12-13T02:07:51;12.77;;;5.83;;
9138;SDS011;4604;48.616;9.548;2022-12-13T02:10:18;12.30;;;5.47;;
9138;SDS011;4604;48.616;9.548;2022-12-13T02:12:47;12.27;;;6.00;;
9138;SDS011;4604;48.616;9.548;2022-12-13T02:15:14;10.07;;;5.77;;
9138;SDS011;4604;48.616;9.548;2022-12-13T02:17:46;10.07;;;5.47;;
9138;SDS011;4604;48.616;9.548;2022-12-13T02:20:52;9.13;;;5.10;;
9138;SDS011;4604;48.616;9.548;2022-12-13T02:23:49;10.47;;;5.73;;
9138;SDS011;4604;48.616;9.548;2022-12-13T02:26:49;10.40;;;4.83;;
9138;SDS011;4604;48.616;9.548;2022-12-13T02:32:28;12.47;;;5.43;;
9138;SDS011;4604;48.616;9.548;2022-12-13T02:35:02;8.97;;;5.30;;
9138;SDS011;4604;48.616;9.548;2022-12-13T02:37:36;8.33;;;4.40;;
9138;SDS011;4604;48.616;9.548;2022-12-13T02:40:14;8.73;;;4.33;;
9138;SDS011;4604;48.616;9.548;2022-12-13T02:42:48;11.10;;;5.20;;
9138;SDS011;4604;48.616;9.548;2022-12-13T02:45:21;8.30;;;4.53;;
9138;SDS011;4604;48.616;9.548;2022-12-13T02:47:54;11.07;;;4.90;;
9138;SDS011;4604;48.616;9.548;2022-12-13T02:50:23;10.00;;;5.50;;
9138;SDS011;4604;48.616;9.548;2022-12-13T02:52:51;10.23;;;5.30;;
9138;SDS011;4604;48.616;9.548;2022-12-13T02:55:19;7.97;;;4.70;;
9138;SDS011;4604;48.616;9.548;2022-12-13T02:57:46;8.17;;;4.97;;
9138;SDS011;4604;48.616;9.548;2022-12-13T03:00:14;10.27;;;5.03;;
9138;SDS011;4604;48.616;9.548;2022-12-13T03:02:44;7.73;;;4.70;;
9138;SDS011;4604;48.616;9.548;2022-12-13T03:05:26;9.33;;;5.30;;
9138;SDS011;4604;48.616;9.548;2022-12-13T03:08:19;10.17;;;5.63;;
9138;SDS011;4604;48.616;9.548;2022-12-13T03:10:51;7.20;;;4.80;;
9138;SDS011;4604;48.616;9.548;2022-12-13T03:13:24;9.80;;;5.27;;
9138;SDS011;4604;48.616;9.548;2022-12-13T03:16:13;8.17;;;4.70;;
9138;SDS011;4604;48.616;9.548;2022-12-13T03:18:47;8.17;;;4.93;;
9138;SDS011;4604;48.616;9.548;2022-12-13T03:21:16;8.00;;;4.10;;
9138;SDS011;4604;48.616;9.548;2022-12-13T03:23:44;9.27;;;4.97;;
9138;SDS011;4604;48.616;9.548;2022-12-13T03:26:11;7.77;;;4.23;;
9138;SDS011;4604;48.616;9.548;2022-12-13T03:28:40;8.33;;;4.37;;
9138;SDS011;4604;48.616;9.548;2022-12-13T03:31:07;7.13;;;4.50;;
9138;SDS011;4604;48.616;9.548;2022-12-13T03:33:34;8.77;;;4.50;;
9138;SDS011;4604;48.616;9.548;2022-12-13T03:36:00;10.47;;;5.27;;
9138;SDS011;4604;48.616;9.548;2022-12-13T03:38:29;8.93;;;4.50;;
9138;SDS011;4604;48.616;9.548;2022-12-13T03:40:57;10.50;;;5.40;;
9138;SDS011;4604;48.616;9.548;2022-12-13T03:43:26;11.97;;;5.73;;
9138;SDS011;4604;48.616;9.548;2022-12-13T03:45:54;10.83;;;5.57;;
9138;SDS011;4604;48.616;9.548;2022-12-13T03:48:21;12.57;;;5.17;;
9138;SDS011;4604;48.616;9.548;2022-12-13T03:50:47;10.53;;;4.67;;
9138;SDS011;4604;48.616;9.548;2022-12-13T03:53:15;9.53;;;4.90;;
9138;SDS011;4604;48.616;9.548;2022-12-13T03:55:43;9.07;;;5.00;;
9138;SDS011;4604;48.616;9.548;2022-12-13T03:58:09;8.43;;;5.10;;
9138;SDS011;4604;48.616;9.548;2022-12-13T04:00:36;9.20;;;4.90;;
9138;SDS011;4604;48.616;9.548;2022-12-13T04:03:03;10.23;;;5.00;;
9138;SDS011;4604;48.616;9.548;2022-12-13T04:05:29;9.90;;;5.23;;
9138;SDS011;4604;48.616;9.548;2022-12-13T04:07:57;12.40;;;4.83;;
9138;SDS011;4604;48.616;9.548;2022-12-13T04:10:24;13.00;;;4.80;;
9138;SDS011;4604;48.616;9.548;2022-12-13T04:12:52;8.67;;;4.87;;
9138;SDS011;4604;48.616;9.548;2022-12-13T04:15:36;8.67;;;5.20;;
9138;SDS011;4604;48.616;9.548;2022-12-13T04:18:03;10.27;;;5.60;;
9138;SDS011;4604;48.616;9.548;2022-12-13T04:20:30;13.13;;;5.27;;
9138;SDS011;4604;48.616;9.548;2022-12-13T04:22:57;10.07;;;5.43;;
9138;SDS011;4604;48.616;9.548;2022-12-13T04:25:23;8.90;;;5.30;;
9138;SDS011;4604;48.616;9.548;2022-12-13T04:27:51;9.17;;;5.43;;
9138;SDS011;4604;48.616;9.548;2022-12-13T04:30:18;10.17;;;5.80;;
9138;SDS011;4604;48.616;9.548;2022-12-13T04:32:45;9.70;;;5.67;;
9138;SDS011;4604;48.616;9.548;2022-12-13T04:35:11;13.23;;;5.77;;
9138;SDS011;4604;48.616;9.548;2022-12-13T04:37:38;9.43;;;5.50;;
9138;SDS011;4604;48.616;9.548;2022-12-13T04:40:05;10.10;;;5.10;;
9138;SDS011;4604;48.616;9.548;2022-12-13T04:42:33;11.10;;;5.30;;
9138;SDS011;4604;48.616;9.548;2022-12-13T04:45:01;8.30;;;5.53;;
9138;SDS011;4604;48.616;9.548;2022-12-13T04:47:27;9.47;;;5.47;;
9138;SDS011;4604;48.616;9.548;2022-12-13T04:49:54;9.23;;;5.00;;
9138;SDS011;4604;48.616;9.548;2022-12-13T04:52:21;9.77;;;5.27;;
9138;SDS011;4604;48.616;9.548;2022-12-13T04:54:47;11.37;;;5.10;;
9138;SDS011;4604;48.616;9.548;2022-12-13T04:57:14;9.10;;;4.83;;
9138;SDS011;4604;48.616;9.548;2022-12-13T04:59:41;10.50;;;5.40;;
9138;SDS011;4604;48.616;9.548;2022-12-13T05:02:12;8.33;;;4.63;;
9138;SDS011;4604;48.616;9.548;2022-12-13T05:04:39;11.00;;;5.53;;
9138;SDS011;4604;48.616;9.548;2022-12-13T05:07:06;11.37;;;5.37;;
9138;SDS011;4604;48.616;9.548;2022-12-13T05:09:32;13.30;;;5.87;;
9138;SDS011;4604;48.616;9.548;2022-12-13T05:11:59;13.77;;;5.73;;
9138;SDS011;4604;48.616;9.548;2022-12-13T05:14:26;17.43;;;5.93;;
9138;SDS011;4604;48.616;9.548;2022-12-13T05:16:52;9.63;;;5.63;;
9138;SDS011;4604;48.616;9.548;2022-12-13T05:19:21;15.50;;;6.67;;
9138;SDS011;4604;48.616;9.548;2022-12-13T05:21:48;14.90;;;6.77;;
9138;SDS011;4604;48.616;9.548;2022-12-13T05:24:14;9.77;;;4.80;;
9138;SDS011;4604;48.616;9.548;2022-12-13T05:26:42;11.77;;;5.93;;
9138;SDS011;4604;48.616;9.548;2022-12-13T05:29:08;7.33;;;4.83;;
9138;SDS011;4604;48.616;9.548;2022-12-13T05:31:35;12.43;;;5.87;;
9138;SDS011;4604;48.616;9.548;2022-12-13T05:34:02;11.80;;;5.27;;
9138;SDS011;4604;48.616;9.548;2022-12-13T05:36:30;10.40;;;5.37;;
9138;SDS011;4604;48.616;9.548;2022-12-13T05:38:57;9.60;;;4.83;;
9138;SDS011;4604;48.616;9.548;2022-12-13T05:41:23;8.10;;;4.60;;
9138;SDS011;4604;48.616;9.548;2022-12-13T05:43:54;11.43;;;5.97;;
9138;SDS011;4604;48.616;9.548;2022-12-13T05:46:21;9.47;;;4.73;;
9138;SDS011;4604;48.616;9.548;2022-12-13T05:48:48;9.03;;;5.20;;
9138;SDS011;4604;48.616;9.548;2022-12-13T05:51:15;11.83;;;5.37;;
9138;SDS011;4604;48.616;9.548;2022-12-13T05:53:43;13.40;;;5.93;;
9138;SDS011;4604;48.616;9.548;2022-12-13T05:56:11;13.57;;;5.83;;
9138;SDS011;4604;48.616;9.548;2022-12-13T05:58:38;12.07;;;6.43;;
9138;SDS011;4604;48.616;9.548;2022-12-13T06:01:06;13.57;;;6.00;;
9138;SDS011;4604;48.616;9.548;2022-12-13T06:03:35;11.77;;;7.13;;
9138;SDS011;4604;48.616;9.548;2022-12-13T06:06:01;11.73;;;5.97;;
9138;SDS011;4604;48.616;9.548;2022-12-13T06:08:29;11.47;;;5.67;;
9138;SDS011;4604;48.616;9.548;2022-12-13T06:10:57;10.77;;;5.43;;
9138;SDS011;4604;48.616;9.548;2022-12-13T06:13:25;9.20;;;5.07;;
9138;SDS011;4604;48.616;9.548;2022-12-13T06:15:53;8.17;;;4.90;;
9138;SDS011;4604;48.616;9.548;2022-12-13T06:18:20;12.10;;;5.23;;
9138;SDS011;4604;48.616;9.548;2022-12-13T06:20:54;8.70;;;4.83;;
9138;SDS011;4604;48.616;9.548;2022-12-13T06:23:21;12.60;;;5.93;;
9138;SDS011;4604;48.616;9.548;2022-12-13T06:25:48;9.80;;;4.87;;
9138;SDS011;4604;48.616;9.548;2022-12-13T06:28:16;8.67;;;4.90;;
9138;SDS011;4604;48.616;9.548;2022-12-13T06:30:42;8.93;;;4.90;;
9138;SDS011;4604;48.616;9.548;2022-12-13T06:33:09;11.93;;;5.20;;
9138;SDS011;4604;48.616;9.548;2022-12-13T06:35:36;8.30;;;4.93;;
9138;SDS011;4604;48.616;9.548;2022-12-13T06:38:03;9.80;;;5.53;;
9138;SDS011;4604;48.616;9.548;2022-12-13T06:40:30;11.07;;;5.80;;
9138;SDS011;4604;48.616;9.548;2022-12-13T06:42:57;7.77;;;4.47;;
9138;SDS011;4604;48.616;9.548;2022-12-13T06:45:26;11.30;;;5.40;;
9138;SDS011;4604;48.616;9.548;2022-12-13T06:47:53;9.80;;;5.00;;
9138;SDS011;4604;48.616;9.548;2022-12-13T06:50:21;10.10;;;5.90;;
9138;SDS011;4604;48.616;9.548;2022-12-13T06:52:47;11.00;;;6.70;;
9138;SDS011;4604;48.616;9.548;2022-12-13T06:55:14;9.57;;;5.47;;
9138;SDS011;4604;48.616;9.548;2022-12-13T06:57:41;11.67;;;5.53;;
9138;SDS011;4604;48.616;9.548;2022-12-13T07:00:09;9.73;;;5.37;;
9138;SDS011;4604;48.616;9.548;2022-12-13T07:02:37;8.93;;;5.33;;
9138;SDS011;4604;48.616;9.548;2022-12-13T07:05:04;9.07;;;5.90;;
9138;SDS011;4604;48.616;9.548;2022-12-13T07:07:32;10.53;;;4.83;;
9138;SDS011;4604;48.616;9.548;2022-12-13T07:09:59;8.97;;;5.33;;
9138;SDS011;4604;48.616;9.548;2022-12-13T07:12:25;7.53;;;4.63;;
9138;SDS011;4604;48.616;9.548;2022-12-13T07:14:52;8.67;;;5.27;;
9138;SDS011;4604;48.616;9.548;2022-12-13T07:17:19;9.80;;;5.30;;
9138;SDS011;4604;48.616;9.548;2022-12-13T07:19:47;12.17;;;6.30;;
9138;SDS011;4604;48.616;9.548;2022-12-13T07:22:13;12.13;;;5.97;;
9138;SDS011;4604;48.616;9.548;2022-12-13T07:24:40;13.70;;;6.03;;
9138;SDS011;4604;48.616;9.548;2022-12-13T07:27:07;11.70;;;5.63;;
9138;SDS011;4604;48.616;9.548;2022-12-13T07:29:33;7.57;;;5.23;;
9138;SDS011;4604;48.616;9.548;2022-12-13T07:32:00;11.17;;;6.53;;
9138;SDS011;4604;48.616;9.548;2022-12-13T07:34:26;9.07;;;5.33;;
9138;SDS011;4604;48.616;9.548;2022-12-13T07:36:55;11.73;;;5.80;;
9138;SDS011;4604;48.616;9.548;2022-12-13T07:39:22;10.70;;;5.90;;
9138;SDS011;4604;48.616;9.548;2022-12-13T07:41:51;12.63;;;6.53;;
9138;SDS011;4604;48.616;9.548;2022-12-13T07:44:18;12.83;;;6.30;;
9138;SDS011;4604;48.616;9.548;2022-12-13T07:46:45;12.57;;;6.30;;
9138;SDS011;4604;48.616;9.548;2022-12-13T07:49:12;13.50;;;6.50;;
9138;SDS011;4604;48.616;9.548;2022-12-13T07:51:38;11.53;;;6.20;;
9138;SDS011;4604;48.616;9.548;2022-12-13T07:54:06;12.53;;;6.70;;
9138;SDS011;4604;48.616;9.548;2022-12-13T07:56:33;13.13;;;6.83;;
9138;SDS011;4604;48.616;9.548;2022-12-13T07:59:00;20.73;;;9.10;;
9138;SDS011;4604;48.616;9.548;2022-12-13T08:01:27;14.90;;;6.90;;
9138;SDS011;4604;48.616;9.548;2022-12-13T08:03:54;13.80;;;6.07;;
9138;SDS011;4604;48.616;9.548;2022-12-13T08:06:21;11.83;;;5.53;;
9138;SDS011;4604;48.616;9.548;2022-12-13T08:08:48;9.90;;;5.57;;
9138;SDS011;4604;48.616;9.548;2022-12-13T08:11:17;11.83;;;6.40;;
9138;SDS011;4604;48.616;9.548;2022-12-13T08:13:43;10.63;;;5.77;;
9138;SDS011;4604;48.616;9.548;2022-12-13T08:16:11;17.77;;;8.53;;
9138;SDS011;4604;48.616;9.548;2022-12-13T08:18:42;18.10;;;7.43;;
9138;SDS011;4604;48.616;9.548;2022-12-13T08:21:08;12.53;;;6.57;;
9138;SDS011;4604;48.616;9.548;2022-12-13T08:23:35;13.87;;;6.70;;
9138;SDS011;4604;48.616;9.548;2022-12-13T08:26:02;12.37;;;6.33;;
9138;SDS011;4604;48.616;9.548;2022-12-13T08:28:32;11.67;;;6.03;;
9138;SDS011;4604;48.616;9.548;2022-12-13T08:31:01;10.50;;;5.93;;
9138;SDS011;4604;48.616;9.548;2022-12-13T08:33:30;11.17;;;6.07;;
9138;SDS011;4604;48.616;9.548;2022-12-13T08:36:05;14.47;;;8.00;;
9138;SDS011;4604;48.616;9.548;2022-12-13T08:38:32;14.87;;;7.90;;
9138;SDS011;4604;48.616;9.548;2022-12-13T08:40:59;17.07;;;9.73;;
9138;SDS011;4604;48.616;9.548;2022-12-13T08:43:26;11.13;;;6.70;;
9138;SDS011;4604;48.616;9.548;2022-12-13T08:45:54;17.27;;;7.23;;
9138;SDS011;4604;48.616;9.548;2022-12-13T08:48:20;18.37;;;7.60;;
9138;SDS011;4604;48.616;9.548;2022-12-13T08:50:47;16.83;;;6.03;;
9138;SDS011;4604;48.616;9.548;2022-12-13T08:53:14;14.90;;;6.60;;
9138;SDS011;4604;48.616;9.548;2022-12-13T08:55:41;14.10;;;8.10;;
9138;SDS011;4604;48.616;9.548;2022-12-13T08:58:08;18.30;;;7.50;;
9138;SDS011;4604;48.616;9.548;2022-12-13T09:00:35;13.07;;;6.73;;
9138;SDS011;4604;48.616;9.548;2022-12-13T09:03:03;14.50;;;6.60;;
9138;SDS011;4604;48.616;9.548;2022-12-13T09:05:31;9.60;;;5.23;;
9138;SDS011;4604;48.616;9.548;2022-12-13T09:07:58;10.77;;;6.20;;
9138;SDS011;4604;48.616;9.548;2022-12-13T09:10:26;8.90;;;4.73;;
9138;SDS011;4604;48.616;9.548;2022-12-13T09:12:53;12.03;;;5.53;;
9138;SDS011;4604;48.616;9.548;2022-12-13T09:15:21;10.13;;;6.10;;
9138;SDS011;4604;48.616;9.548;2022-12-13T09:17:48;14.10;;;6.37;;
9138;SDS011;4604;48.616;9.548;2022-12-13T09:20:16;13.43;;;6.40;;
9138;SDS011;4604;48.616;9.548;2022-12-13T09:22:43;12.13;;;5.70;;
9138;SDS011;4604;48.616;9.548;2022-12-13T09:25:10;11.23;;;6.43;;
9138;SDS011;4604;48.616;9.548;2022-12-13T09:27:37;9.70;;;5.23;;
9138;SDS011;4604;48.616;9.548;2022-12-13T09:30:04;12.27;;;5.80;;
9138;SDS011;4604;48.616;9.548;2022-12-13T09:32:32;11.60;;;5.50;;
9138;SDS011;4604;48.616;9.548;2022-12-13T09:34:58;12.23;;;5.83;;
9138;SDS011;4604;48.616;9.548;2022-12-13T09:37:27;12.67;;;5.43;;
9138;SDS011;4604;48.616;9.548;2022-12-13T09:39:54;10.90;;;5.60;;
9138;SDS011;4604;48.616;9.548;2022-12-13T09:42:21;10.17;;;5.03;;
9138;SDS011;4604;48.616;9.548;2022-12-13T09:44:50;10.50;;;5.83;;
9138;SDS011;4604;48.616;9.548;2022-12-13T09:47:26;10.03;;;5.57;;
9138;SDS011;4604;48.616;9.548;2022-12-13T09:49:59;10.23;;;5.37;;
9138;SDS011;4604;48.616;9.548;2022-12-13T09:52:29;10.63;;;5.03;;
9138;SDS011;4604;48.616;9.548;2022-12-13T09:55:02;10.10;;;5.17;;
9138;SDS011;4604;48.616;9.548;2022-12-13T09:57:44;9.93;;;4.77;;
9138;SDS011;4604;48.616;9.548;2022-12-13T10:00:12;10.63;;;5.73;;
9138;SDS011;4604;48.616;9.548;2022-12-13T10:02:42;9.57;;;4.53;;
9138;SDS011;4604;48.616;9.548;2022-12-13T10:05:15;11.50;;;5.10;;
9138;SDS011;4604;48.616;9.548;2022-12-13T10:07:47;10.20;;;4.90;;
9138;SDS011;4604;48.616;9.548;2022-12-13T10:10:15;9.90;;;5.40;;
9138;SDS011;4604;48.616;9.548;2022-12-13T10:12:42;8.23;;;4.97;;
9138;SDS011;4604;48.616;9.548;2022-12-13T10:15:15;9.20;;;5.20;;
9138;SDS011;4604;48.616;9.548;2022-12-13T10:17:44;7.37;;;4.60;;
9138;SDS011;4604;48.616;9.548;2022-12-13T10:20:15;10.10;;;5.40;;
9138;SDS011;4604;48.616;9.548;2022-12-13T10:22:44;9.33;;;4.57;;
9138;SDS011;4604;48.616;9.548;2022-12-13T10:25:12;9.83;;;4.27;;
9138;SDS011;4604;48.616;9.548;2022-12-13T10:27:41;7.50;;;4.67;;
9138;SDS011;4604;48.616;9.548;2022-12-13T10:30:09;9.43;;;4.83;;
9138;SDS011;4604;48.616;9.548;2022-12-13T10:32:41;10.10;;;5.07;;
9138;SDS011;4604;48.616;9.548;2022-12-13T10:35:18;8.70;;;5.10;;
9138;SDS011;4604;48.616;9.548;2022-12-13T10:37:48;8.50;;;5.00;;
9138;SDS011;4604;48.616;9.548;2022-12-13T10:40:23;9.27;;;5.17;;
9138;SDS011;4604;48.616;9.548;2022-12-13T10:45:41;8.23;;;5.37;;
9138;SDS011;4604;48.616;9.548;2022-12-13T10:48:16;9.43;;;5.00;;
9138;SDS011;4604;48.616;9.548;2022-12-13T10:50:54;7.93;;;5.23;;
9138;SDS011;4604;48.616;9.548;2022-12-13T10:53:23;7.40;;;4.67;;
9138;SDS011;4604;48.616;9.548;2022-12-13T10:55:56;12.30;;;5.37;;
9138;SDS011;4604;48.616;9.548;2022-12-13T10:58:33;10.50;;;4.73;;
9138;SDS011;4604;48.616;9.548;2022-12-13T11:01:08;6.63;;;4.10;;
9138;SDS011;4604;48.616;9.548;2022-12-13T11:03:36;9.77;;;5.17;;
9138;SDS011;4604;48.616;9.548;2022-12-13T11:06:04;10.20;;;5.60;;
9138;SDS011;4604;48.616;9.548;2022-12-13T11:08:37;8.70;;;5.00;;
9138;SDS011;4604;48.616;9.548;2022-12-13T11:11:07;8.97;;;5.00;;
9138;SDS011;4604;48.616;9.548;2022-12-13T11:13:35;5.90;;;4.17;;
9138;SDS011;4604;48.616;9.548;2022-12-13T11:16:04;7.57;;;4.50;;
9138;SDS011;4604;48.616;9.548;2022-12-13T11:18:49;9.97;;;4.90;;
9138;SDS011;4604;48.616;9.548;2022-12-13T11:21:20;8.30;;;5.00;;
9138;SDS011;4604;48.616;9.548;2022-12-13T11:23:50;9.63;;;5.27;;
9138;SDS011;4604;48.616;9.548;2022-12-13T11:26:21;10.40;;;5.73;;
9138;SDS011;4604;48.616;9.548;2022-12-13T11:29:03;8.33;;;5.20;;
9138;SDS011;4604;48.616;9.548;2022-12-13T11:31:42;8.70;;;5.03;;
9138;SDS011;4604;48.616;9.548;2022-12-13T11:34:17;8.60;;;5.30;;
9138;SDS011;4604;48.616;9.548;2022-12-13T11:36:57;9.87;;;5.77;;
9138;SDS011;4604;48.616;9.548;2022-12-13T11:39:32;7.60;;;4.60;;
9138;SDS011;4604;48.616;9.548;2022-12-13T11:42:07;9.57;;;5.47;;
9138;SDS011;4604;48.616;9.548;2022-12-13T11:44:50;11.03;;;5.27;;
9138;SDS011;4604;48.616;9.548;2022-12-13T11:47:26;8.10;;;4.83;;
9138;SDS011;4604;48.616;9.548;2022-12-13T11:49:59;8.60;;;5.17;;
9138;SDS011;4604;48.616;9.548;2022-12-13T11:52:33;9.03;;;4.70;;
9138;SDS011;4604;48.616;9.548;2022-12-13T11:55:05;9.40;;;5.43;;
9138;SDS011;4604;48.616;9.548;2022-12-13T11:57:43;7.03;;;4.60;;
9138;SDS011;4604;48.616;9.548;2022-12-13T12:00:25;7.73;;;4.80;;
9138;SDS011;4604;48.616;9.548;2022-12-13T12:02:57;7.73;;;4.53;;
9138;SDS011;4604;48.616;9.548;2022-12-13T12:05:32;8.43;;;5.13;;
9138;SDS011;4604;48.616;9.548;2022-12-13T12:08:04;7.37;;;4.20;;
9138;SDS011;4604;48.616;9.548;2022-12-13T12:10:39;10.10;;;4.50;;
9138;SDS011;4604;48.616;9.548;2022-12-13T12:13:12;9.57;;;5.10;;
9138;SDS011;4604;48.616;9.548;2022-12-13T12:15:44;9.67;;;5.73;;
9138;SDS011;4604;48.616;9.548;2022-12-13T12:18:15;10.07;;;5.10;;
9138;SDS011;4604;48.616;9.548;2022-12-13T12:20:45;10.70;;;5.30;;
9138;SDS011;4604;48.616;9.548;2022-12-13T12:23:26;7.13;;;4.30;;
9138;SDS011;4604;48.616;9.548;2022-12-13T12:26:04;9.87;;;5.47;;
9138;SDS011;4604;48.616;9.548;2022-12-13T12:28:37;9.63;;;5.00;;
9138;SDS011;4604;48.616;9.548;2022-12-13T12:31:26;9.27;;;4.77;;
9138;SDS011;4604;48.616;9.548;2022-12-13T12:33:59;7.27;;;4.33;;
9138;SDS011;4604;48.616;9.548;2022-12-13T12:36:40;10.30;;;4.80;;
9138;SDS011;4604;48.616;9.548;2022-12-13T12:45:17;8.67;;;4.87;;
9138;SDS011;4604;48.616;9.548;2022-12-13T12:47:56;8.83;;;4.70;;
9138;SDS011;4604;48.616;9.548;2022-12-13T12:50:40;7.77;;;4.40;;
9138;SDS011;4604;48.616;9.548;2022-12-13T12:56:16;9.63;;;4.70;;
9138;SDS011;4604;48.616;9.548;2022-12-13T12:58:53;7.97;;;4.40;;
9138;SDS011;4604;48.616;9.548;2022-12-13T13:01:30;17.47;;;5.57;;
9138;SDS011;4604;48.616;9.548;2022-12-13T13:04:11;10.77;;;4.70;;
9138;SDS011;4604;48.616;9.548;2022-12-13T13:06:44;34.73;;;12.73;;
9138;SDS011;4604;48.616;9.548;2022-12-13T13:09:16;30.50;;;9.80;;
9138;SDS011;4604;48.616;9.548;2022-12-13T13:11:44;16.67;;;7.10;;
9138;SDS011;4604;48.616;9.548;2022-12-13T13:14:27;13.70;;;6.63;;
9138;SDS011;4604;48.616;9.548;2022-12-13T13:16:57;7.60;;;4.50;;
9138;SDS011;4604;48.616;9.548;2022-12-13T13:19:40;8.67;;;4.57;;
9138;SDS011;4604;48.616;9.548;2022-12-13T13:25:12;8.23;;;4.47;;
9138;SDS011;4604;48.616;9.548;2022-12-13T13:27:47;11.43;;;5.13;;
9138;SDS011;4604;48.616;9.548;2022-12-13T13:30:17;10.57;;;5.50;;
9138;SDS011;4604;48.616;9.548;2022-12-13T13:32:47;11.63;;;4.97;;
9138;SDS011;4604;48.616;9.548;2022-12-13T13:41:52;10.90;;;5.50;;
9138;SDS011;4604;48.616;9.548;2022-12-13T13:47:30;10.23;;;5.33;;
9138;SDS011;4604;48.616;9.548;2022-12-13T13:50:20;11.57;;;5.13;;
9138;SDS011;4604;48.616;9.548;2022-12-13T13:53:14;7.67;;;4.50;;
9138;SDS011;4604;48.616;9.548;2022-12-13T13:56:09;10.67;;;5.10;;
9138;SDS011;4604;48.616;9.548;2022-12-13T14:02:12;10.83;;;5.07;;
9138;SDS011;4604;48.616;9.548;2022-12-13T14:08:18;9.47;;;5.37;;
9138;SDS011;4604;48.616;9.548;2022-12-13T14:14:19;8.67;;;4.47;;
9138;SDS011;4604;48.616;9.548;2022-12-13T14:17:16;7.90;;;4.90;;
9138;SDS011;4604;48.616;9.548;2022-12-13T14:23:02;8.43;;;4.67;;
9138;SDS011;4604;48.616;9.548;2022-12-13T14:25:43;9.40;;;5.17;;
9138;SDS011;4604;48.616;9.548;2022-12-13T14:28:24;10.57;;;4.40;;
9138;SDS011;4604;48.616;9.548;2022-12-13T14:30:59;8.70;;;4.70;;
9138;SDS011;4604;48.616;9.548;2022-12-13T14:33:26;8.00;;;4.90;;
9138;SDS011;4604;48.616;9.548;2022-12-13T14:35:55;9.73;;;4.80;;
9138;SDS011;4604;48.616;9.548;2022-12-13T14:38:24;9.10;;;5.00;;
9138;SDS011;4604;48.616;9.548;2022-12-13T14:40:53;8.83;;;4.70;;
9138;SDS011;4604;48.616;9.548;2022-12-13T14:43:22;11.87;;;5.10;;
9138;SDS011;4604;48.616;9.548;2022-12-13T14:45:53;10.07;;;5.27;;
9138;SDS011;4604;48.616;9.548;2022-12-13T14:48:21;10.97;;;5.03;;
9138;SDS011;4604;48.616;9.548;2022-12-13T14:50:49;9.63;;;5.10;;
9138;SDS011;4604;48.616;9.548;2022-12-13T14:53:20;9.20;;;5.43;;
9138;SDS011;4604;48.616;9.548;2022-12-13T14:56:05;7.63;;;4.13;;
9138;SDS011;4604;48.616;9.548;2022-12-13T14:58:33;9.70;;;4.77;;
9138;SDS011;4604;48.616;9.548;2022-12-13T15:01:01;11.33;;;5.47;;
9138;SDS011;4604;48.616;9.548;2022-12-13T15:03:28;14.37;;;6.50;;
9138;SDS011;4604;48.616;9.548;2022-12-13T15:05:56;9.20;;;5.10;;
9138;SDS011;4604;48.616;9.548;2022-12-13T15:08:24;11.47;;;5.27;;
9138;SDS011;4604;48.616;9.548;2022-12-13T15:10:52;10.63;;;5.37;;
9138;SDS011;4604;48.616;9.548;2022-12-13T15:13:26;9.13;;;5.33;;
9138;SDS011;4604;48.616;9.548;2022-12-13T15:15:58;7.77;;;4.37;;
9138;SDS011;4604;48.616;9.548;2022-12-13T15:18:28;12.73;;;5.10;;
9138;SDS011;4604;48.616;9.548;2022-12-13T15:20:55;8.37;;;5.10;;
9138;SDS011;4604;48.616;9.548;2022-12-13T15:23:23;10.43;;;5.10;;
9138;SDS011;4604;48.616;9.548;2022-12-13T15:25:55;8.83;;;4.67;;
9138;SDS011;4604;48.616;9.548;2022-12-13T15:28:26;10.33;;;5.90;;
9138;SDS011;4604;48.616;9.548;2022-12-13T15:30:56;12.93;;;5.47;;
9138;SDS011;4604;48.616;9.548;2022-12-13T15:33:25;13.37;;;5.60;;
9138;SDS011;4604;48.616;9.548;2022-12-13T15:36:01;11.40;;;5.30;;
9138;SDS011;4604;48.616;9.548;2022-12-13T15:38:34;14.23;;;5.83;;
9138;SDS011;4604;48.616;9.548;2022-12-13T15:41:04;30.43;;;14.77;;
9138;SDS011;4604;48.616;9.548;2022-12-13T15:43:33;18.03;;;10.10;;
9138;SDS011;4604;48.616;9.548;2022-12-13T15:46:03;12.27;;;6.07;;
9138;SDS011;4604;48.616;9.548;2022-12-13T15:48:33;13.13;;;6.30;;
9138;SDS011;4604;48.616;9.548;2022-12-13T15:51:03;12.10;;;6.47;;
9138;SDS011;4604;48.616;9.548;2022-12-13T15:53:31;16.20;;;7.13;;
9138;SDS011;4604;48.616;9.548;2022-12-13T15:55:59;12.57;;;6.40;;
9138;SDS011;4604;48.616;9.548;2022-12-13T15:58:26;10.43;;;5.90;;
9138;SDS011;4604;48.616;9.548;2022-12-13T16:00:58;11.97;;;6.03;;
9138;SDS011;4604;48.616;9.548;2022-12-13T16:03:29;12.07;;;5.83;;
9138;SDS011;4604;48.616;9.548;2022-12-13T16:06:07;13.27;;;6.27;;
9138;SDS011;4604;48.616;9.548;2022-12-13T16:08:37;24.37;;;9.50;;